sensor_id;sensor_type;location;lat;lon;timestamp;P1;durP1;ratioP1;P2;durP2;ratioP2
44214;SDS011;29884;47.450;19.124;2023-04-24T00:00:54;4.22;;;2.50;;
44214;SDS011;29884;47.450;19.124;2023-04-24T00:03:26;5.22;;;2.90;;
44214;SDS011;29884;47.450;19.124;2023-04-24T00:05:53;4.85;;;2.63;;
44214;SDS011;29884;47.450;19.124;2023-04-24T00:08:19;5.50;;;3.15;;
44214;SDS011;29884;47.450;19.124;2023-04-24T00:10:45;4.55;;;2.75;;
44214;SDS011;29884;47.450;19.124;2023-04-24T00:13:11;4.43;;;2.90;;
44214;SDS011;29884;47.450;19.124;2023-04-24T00:15:37;3.92;;;2.78;;
44214;SDS011;29884;47.450;19.124;2023-04-24T00:18:03;4.80;;;3.03;;
44214;SDS011;29884;47.450;19.124;2023-04-24T00:20:29;5.90;;;3.17;;
44214;SDS011;29884;47.450;19.124;2023-04-24T00:22:54;3.42;;;2.70;;
44214;SDS011;29884;47.450;19.124;2023-04-24T00:25:20;6.82;;;3.20;;
44214;SDS011;29884;47.450;19.124;2023-04-24T00:27:46;5.22;;;3.20;;
44214;SDS011;29884;47.450;19.124;2023-04-24T00:30:12;5.43;;;3.10;;
44214;SDS011;29884;47.450;19.124;2023-04-24T00:32:38;4.47;;;3.22;;
44214;SDS011;29884;47.450;19.124;2023-04-24T00:35:04;7.13;;;3.45;;
44214;SDS011;29884;47.450;19.124;2023-04-24T00:37:30;8.18;;;3.75;;
44214;SDS011;29884;47.450;19.124;2023-04-24T00:39:56;5.90;;;3.58;;
44214;SDS011;29884;47.450;19.124;2023-04-24T00:42:22;5.47;;;3.50;;
44214;SDS011;29884;47.450;19.124;2023-04-24T00:44:48;4.95;;;3.50;;
44214;SDS011;29884;47.450;19.124;2023-04-24T00:47:14;7.78;;;3.60;;
44214;SDS011;29884;47.450;19.124;2023-04-24T00:49:40;7.93;;;3.72;;
44214;SDS011;29884;47.450;19.124;2023-04-24T00:52:06;3.72;;;3.00;;
44214;SDS011;29884;47.450;19.124;2023-04-24T00:54:34;7.25;;;3.25;;
44214;SDS011;29884;47.450;19.124;2023-04-24T00:57:00;9.27;;;3.53;;
44214;SDS011;29884;47.450;19.124;2023-04-24T00:59:28;6.70;;;3.80;;
44214;SDS011;29884;47.450;19.124;2023-04-24T01:01:53;5.35;;;3.28;;
44214;SDS011;29884;47.450;19.124;2023-04-24T01:04:20;5.68;;;3.63;;
44214;SDS011;29884;47.450;19.124;2023-04-24T01:06:46;9.32;;;3.42;;
44214;SDS011;29884;47.450;19.124;2023-04-24T01:09:12;8.98;;;3.78;;
44214;SDS011;29884;47.450;19.124;2023-04-24T01:11:40;6.65;;;3.55;;
44214;SDS011;29884;47.450;19.124;2023-04-24T01:14:07;9.32;;;3.90;;
44214;SDS011;29884;47.450;19.124;2023-04-24T01:16:33;5.70;;;3.50;;
44214;SDS011;29884;47.450;19.124;2023-04-24T01:19:00;5.22;;;3.53;;
44214;SDS011;29884;47.450;19.124;2023-04-24T01:21:27;7.45;;;3.65;;
44214;SDS011;29884;47.450;19.124;2023-04-24T01:23:55;7.95;;;3.85;;
44214;SDS011;29884;47.450;19.124;2023-04-24T01:26:22;4.47;;;3.45;;
44214;SDS011;29884;47.450;19.124;2023-04-24T01:28:48;6.80;;;4.13;;
44214;SDS011;29884;47.450;19.124;2023-04-24T01:31:14;6.32;;;3.95;;
44214;SDS011;29884;47.450;19.124;2023-04-24T01:33:41;7.95;;;3.75;;
44214;SDS011;29884;47.450;19.124;2023-04-24T01:36:08;7.22;;;4.20;;
44214;SDS011;29884;47.450;19.124;2023-04-24T01:38:36;7.97;;;3.75;;
44214;SDS011;29884;47.450;19.124;2023-04-24T01:41:01;8.18;;;3.90;;
44214;SDS011;29884;47.450;19.124;2023-04-24T01:43:27;6.05;;;3.67;;
44214;SDS011;29884;47.450;19.124;2023-04-24T01:45:53;7.13;;;4.15;;
44214;SDS011;29884;47.450;19.124;2023-04-24T01:48:19;9.00;;;3.65;;
44214;SDS011;29884;47.450;19.124;2023-04-24T01:50:45;8.20;;;4.40;;
44214;SDS011;29884;47.450;19.124;2023-04-24T01:53:11;5.82;;;4.13;;
44214;SDS011;29884;47.450;19.124;2023-04-24T01:55:37;11.57;;;4.45;;
44214;SDS011;29884;47.450;19.124;2023-04-24T01:58:03;6.75;;;4.18;;
44214;SDS011;29884;47.450;19.124;2023-04-24T02:00:29;5.10;;;4.32;;
44214;SDS011;29884;47.450;19.124;2023-04-24T02:02:55;7.75;;;4.80;;
44214;SDS011;29884;47.450;19.124;2023-04-24T02:05:21;8.27;;;5.10;;
44214;SDS011;29884;47.450;19.124;2023-04-24T02:07:46;7.93;;;5.40;;
44214;SDS011;29884;47.450;19.124;2023-04-24T02:10:12;12.48;;;5.70;;
44214;SDS011;29884;47.450;19.124;2023-04-24T02:12:38;10.00;;;5.18;;
44214;SDS011;29884;47.450;19.124;2023-04-24T02:15:04;9.32;;;5.80;;
44214;SDS011;29884;47.450;19.124;2023-04-24T02:17:30;8.25;;;6.18;;
44214;SDS011;29884;47.450;19.124;2023-04-24T02:19:56;9.38;;;5.85;;
44214;SDS011;29884;47.450;19.124;2023-04-24T02:22:22;9.70;;;5.82;;
44214;SDS011;29884;47.450;19.124;2023-04-24T02:24:47;9.05;;;5.53;;
44214;SDS011;29884;47.450;19.124;2023-04-24T02:27:13;7.15;;;5.68;;
44214;SDS011;29884;47.450;19.124;2023-04-24T02:29:39;9.70;;;6.38;;
44214;SDS011;29884;47.450;19.124;2023-04-24T02:32:05;9.63;;;6.30;;
44214;SDS011;29884;47.450;19.124;2023-04-24T02:34:31;7.25;;;5.88;;
44214;SDS011;29884;47.450;19.124;2023-04-24T02:36:56;84.88;;;8.02;;
44214;SDS011;29884;47.450;19.124;2023-04-24T02:39:22;7.72;;;5.35;;
44214;SDS011;29884;47.450;19.124;2023-04-24T02:41:48;10.00;;;5.15;;
44214;SDS011;29884;47.450;19.124;2023-04-24T02:44:14;9.02;;;5.53;;
44214;SDS011;29884;47.450;19.124;2023-04-24T02:46:39;10.88;;;4.88;;
44214;SDS011;29884;47.450;19.124;2023-04-24T02:49:06;8.25;;;4.85;;
44214;SDS011;29884;47.450;19.124;2023-04-24T02:51:32;6.85;;;5.00;;
44214;SDS011;29884;47.450;19.124;2023-04-24T02:53:58;8.23;;;5.78;;
44214;SDS011;29884;47.450;19.124;2023-04-24T02:56:24;8.68;;;5.93;;
44214;SDS011;29884;47.450;19.124;2023-04-24T02:58:50;6.95;;;5.53;;
44214;SDS011;29884;47.450;19.124;2023-04-24T03:01:15;9.02;;;5.70;;
44214;SDS011;29884;47.450;19.124;2023-04-24T03:03:41;8.35;;;5.90;;
44214;SDS011;29884;47.450;19.124;2023-04-24T03:06:07;9.60;;;5.43;;
44214;SDS011;29884;47.450;19.124;2023-04-24T03:08:33;9.85;;;6.40;;
44214;SDS011;29884;47.450;19.124;2023-04-24T03:10:59;6.60;;;5.35;;
44214;SDS011;29884;47.450;19.124;2023-04-24T03:13:25;6.85;;;6.00;;
44214;SDS011;29884;47.450;19.124;2023-04-24T03:15:50;13.40;;;6.28;;
44214;SDS011;29884;47.450;19.124;2023-04-24T03:18:16;8.88;;;5.32;;
44214;SDS011;29884;47.450;19.124;2023-04-24T03:20:42;8.25;;;4.50;;
44214;SDS011;29884;47.450;19.124;2023-04-24T03:23:11;6.57;;;4.13;;
44214;SDS011;29884;47.450;19.124;2023-04-24T03:25:37;7.00;;;3.25;;
44214;SDS011;29884;47.450;19.124;2023-04-24T03:28:02;5.57;;;4.28;;
44214;SDS011;29884;47.450;19.124;2023-04-24T03:30:28;6.40;;;3.58;;
44214;SDS011;29884;47.450;19.124;2023-04-24T03:32:54;5.47;;;3.28;;
44214;SDS011;29884;47.450;19.124;2023-04-24T03:35:20;5.50;;;3.70;;
44214;SDS011;29884;47.450;19.124;2023-04-24T03:37:46;6.32;;;3.47;;
44214;SDS011;29884;47.450;19.124;2023-04-24T03:40:12;5.25;;;3.78;;
44214;SDS011;29884;47.450;19.124;2023-04-24T03:42:38;4.28;;;3.28;;
44214;SDS011;29884;47.450;19.124;2023-04-24T03:45:04;6.05;;;3.22;;
44214;SDS011;29884;47.450;19.124;2023-04-24T03:47:30;9.38;;;4.38;;
44214;SDS011;29884;47.450;19.124;2023-04-24T03:49:56;6.93;;;3.58;;
44214;SDS011;29884;47.450;19.124;2023-04-24T03:52:22;4.45;;;3.83;;
44214;SDS011;29884;47.450;19.124;2023-04-24T03:54:47;6.45;;;4.47;;
44214;SDS011;29884;47.450;19.124;2023-04-24T03:57:13;5.70;;;3.95;;
44214;SDS011;29884;47.450;19.124;2023-04-24T03:59:39;6.05;;;4.28;;
44214;SDS011;29884;47.450;19.124;2023-04-24T04:02:05;6.00;;;4.22;;
44214;SDS011;29884;47.450;19.124;2023-04-24T04:04:30;7.75;;;4.03;;
44214;SDS011;29884;47.450;19.124;2023-04-24T04:06:57;4.70;;;3.85;;
44214;SDS011;29884;47.450;19.124;2023-04-24T04:09:26;5.95;;;4.03;;
44214;SDS011;29884;47.450;19.124;2023-04-24T04:11:52;5.85;;;3.92;;
44214;SDS011;29884;47.450;19.124;2023-04-24T04:14:18;5.47;;;3.70;;
44214;SDS011;29884;47.450;19.124;2023-04-24T04:16:44;5.78;;;4.00;;
44214;SDS011;29884;47.450;19.124;2023-04-24T04:19:10;5.18;;;3.83;;
44214;SDS011;29884;47.450;19.124;2023-04-24T04:21:35;5.50;;;4.30;;
44214;SDS011;29884;47.450;19.124;2023-04-24T04:24:01;4.97;;;3.70;;
44214;SDS011;29884;47.450;19.124;2023-04-24T04:26:27;4.35;;;3.45;;
44214;SDS011;29884;47.450;19.124;2023-04-24T04:28:53;9.32;;;3.92;;
44214;SDS011;29884;47.450;19.124;2023-04-24T04:31:19;4.40;;;3.75;;
44214;SDS011;29884;47.450;19.124;2023-04-24T04:33:46;4.18;;;3.70;;
44214;SDS011;29884;47.450;19.124;2023-04-24T04:36:11;3.60;;;2.65;;
44214;SDS011;29884;47.450;19.124;2023-04-24T04:38:37;4.93;;;2.70;;
44214;SDS011;29884;47.450;19.124;2023-04-24T04:41:03;6.30;;;3.05;;
44214;SDS011;29884;47.450;19.124;2023-04-24T04:43:29;3.42;;;2.92;;
44214;SDS011;29884;47.450;19.124;2023-04-24T04:45:55;3.42;;;2.90;;
44214;SDS011;29884;47.450;19.124;2023-04-24T04:48:22;3.05;;;2.42;;
44214;SDS011;29884;47.450;19.124;2023-04-24T04:50:48;4.45;;;2.67;;
44214;SDS011;29884;47.450;19.124;2023-04-24T04:53:14;4.55;;;2.70;;
44214;SDS011;29884;47.450;19.124;2023-04-24T04:55:40;5.90;;;2.92;;
44214;SDS011;29884;47.450;19.124;2023-04-24T04:58:06;5.65;;;3.35;;
44214;SDS011;29884;47.450;19.124;2023-04-24T05:00:32;4.47;;;2.75;;
44214;SDS011;29884;47.450;19.124;2023-04-24T05:03:01;6.82;;;3.08;;
44214;SDS011;29884;47.450;19.124;2023-04-24T05:05:27;4.88;;;2.97;;
44214;SDS011;29884;47.450;19.124;2023-04-24T05:07:53;6.18;;;3.92;;
44214;SDS011;29884;47.450;19.124;2023-04-24T05:10:19;5.75;;;3.45;;
44214;SDS011;29884;47.450;19.124;2023-04-24T05:12:44;5.82;;;3.10;;
44214;SDS011;29884;47.450;19.124;2023-04-24T05:15:10;3.60;;;2.55;;
44214;SDS011;29884;47.450;19.124;2023-04-24T05:17:36;6.20;;;2.80;;
44214;SDS011;29884;47.450;19.124;2023-04-24T05:20:03;8.65;;;3.22;;
44214;SDS011;29884;47.450;19.124;2023-04-24T05:22:32;6.18;;;3.38;;
44214;SDS011;29884;47.450;19.124;2023-04-24T05:24:57;7.05;;;3.08;;
44214;SDS011;29884;47.450;19.124;2023-04-24T05:27:24;5.25;;;2.35;;
44214;SDS011;29884;47.450;19.124;2023-04-24T05:29:49;3.90;;;2.63;;
44214;SDS011;29884;47.450;19.124;2023-04-24T05:32:16;3.67;;;2.38;;
44214;SDS011;29884;47.450;19.124;2023-04-24T05:34:41;3.88;;;2.28;;
44214;SDS011;29884;47.450;19.124;2023-04-24T05:37:07;4.55;;;2.70;;
44214;SDS011;29884;47.450;19.124;2023-04-24T05:39:34;3.90;;;2.22;;
44214;SDS011;29884;47.450;19.124;2023-04-24T05:42:01;4.20;;;2.33;;
44214;SDS011;29884;47.450;19.124;2023-04-24T05:44:28;4.80;;;2.13;;
44214;SDS011;29884;47.450;19.124;2023-04-24T05:46:53;3.60;;;1.98;;
44214;SDS011;29884;47.450;19.124;2023-04-24T05:49:21;3.90;;;2.45;;
44214;SDS011;29884;47.450;19.124;2023-04-24T05:51:46;3.40;;;1.83;;
44214;SDS011;29884;47.450;19.124;2023-04-24T05:54:12;2.75;;;2.10;;
44214;SDS011;29884;47.450;19.124;2023-04-24T05:56:38;4.93;;;2.33;;
44214;SDS011;29884;47.450;19.124;2023-04-24T05:59:04;7.88;;;2.10;;
44214;SDS011;29884;47.450;19.124;2023-04-24T06:01:30;4.80;;;2.30;;
44214;SDS011;29884;47.450;19.124;2023-04-24T06:03:56;3.70;;;2.38;;
44214;SDS011;29884;47.450;19.124;2023-04-24T06:06:23;3.35;;;1.83;;
44214;SDS011;29884;47.450;19.124;2023-04-24T06:08:49;4.03;;;2.88;;
44214;SDS011;29884;47.450;19.124;2023-04-24T06:11:14;2.65;;;1.90;;
44214;SDS011;29884;47.450;19.124;2023-04-24T06:13:40;2.72;;;2.10;;
44214;SDS011;29884;47.450;19.124;2023-04-24T06:16:06;2.38;;;1.90;;
44214;SDS011;29884;47.450;19.124;2023-04-24T06:18:32;2.65;;;2.10;;
44214;SDS011;29884;47.450;19.124;2023-04-24T06:20:58;4.47;;;2.30;;
44214;SDS011;29884;47.450;19.124;2023-04-24T06:23:24;2.55;;;1.90;;
44214;SDS011;29884;47.450;19.124;2023-04-24T06:25:50;3.50;;;2.20;;
44214;SDS011;29884;47.450;19.124;2023-04-24T06:28:16;4.28;;;2.75;;
44214;SDS011;29884;47.450;19.124;2023-04-24T06:30:42;3.08;;;2.25;;
44214;SDS011;29884;47.450;19.124;2023-04-24T06:33:08;4.15;;;2.60;;
44214;SDS011;29884;47.450;19.124;2023-04-24T06:35:35;3.78;;;2.33;;
44214;SDS011;29884;47.450;19.124;2023-04-24T06:38:01;4.45;;;2.50;;
44214;SDS011;29884;47.450;19.124;2023-04-24T06:40:26;4.00;;;2.00;;
44214;SDS011;29884;47.450;19.124;2023-04-24T06:42:52;3.20;;;1.90;;
44214;SDS011;29884;47.450;19.124;2023-04-24T06:45:18;3.13;;;2.10;;
44214;SDS011;29884;47.450;19.124;2023-04-24T06:47:44;2.97;;;2.22;;
44214;SDS011;29884;47.450;19.124;2023-04-24T06:50:09;3.75;;;2.55;;
44214;SDS011;29884;47.450;19.124;2023-04-24T06:52:36;3.80;;;2.47;;
44214;SDS011;29884;47.450;19.124;2023-04-24T06:55:02;3.70;;;2.65;;
44214;SDS011;29884;47.450;19.124;2023-04-24T06:57:28;4.90;;;2.55;;
44214;SDS011;29884;47.450;19.124;2023-04-24T06:59:54;3.72;;;2.80;;
44214;SDS011;29884;47.450;19.124;2023-04-24T07:02:20;3.55;;;2.35;;
44214;SDS011;29884;47.450;19.124;2023-04-24T07:04:46;2.88;;;2.45;;
44214;SDS011;29884;47.450;19.124;2023-04-24T07:07:13;3.03;;;2.50;;
44214;SDS011;29884;47.450;19.124;2023-04-24T07:09:39;3.97;;;2.30;;
44214;SDS011;29884;47.450;19.124;2023-04-24T07:12:09;3.47;;;2.30;;
44214;SDS011;29884;47.450;19.124;2023-04-24T07:14:38;3.53;;;2.78;;
44214;SDS011;29884;47.450;19.124;2023-04-24T07:17:04;3.78;;;2.70;;
44214;SDS011;29884;47.450;19.124;2023-04-24T07:19:31;5.32;;;2.90;;
44214;SDS011;29884;47.450;19.124;2023-04-24T07:21:58;4.70;;;2.28;;
44214;SDS011;29884;47.450;19.124;2023-04-24T07:24:24;4.88;;;2.72;;
44214;SDS011;29884;47.450;19.124;2023-04-24T07:26:51;4.20;;;2.70;;
44214;SDS011;29884;47.450;19.124;2023-04-24T07:29:17;4.43;;;2.58;;
44214;SDS011;29884;47.450;19.124;2023-04-24T07:31:44;5.47;;;2.80;;
44214;SDS011;29884;47.450;19.124;2023-04-24T07:34:10;4.60;;;2.67;;
44214;SDS011;29884;47.450;19.124;2023-04-24T07:36:36;3.08;;;2.38;;
44214;SDS011;29884;47.450;19.124;2023-04-24T07:39:03;4.93;;;3.25;;
44214;SDS011;29884;47.450;19.124;2023-04-24T07:41:29;3.97;;;2.72;;
44214;SDS011;29884;47.450;19.124;2023-04-24T07:43:55;4.18;;;2.67;;
44214;SDS011;29884;47.450;19.124;2023-04-24T07:46:21;3.72;;;2.90;;
44214;SDS011;29884;47.450;19.124;2023-04-24T07:48:48;6.60;;;3.35;;
44214;SDS011;29884;47.450;19.124;2023-04-24T07:51:14;4.45;;;3.13;;
44214;SDS011;29884;47.450;19.124;2023-04-24T07:53:40;3.45;;;2.90;;
44214;SDS011;29884;47.450;19.124;2023-04-24T07:56:07;3.75;;;2.78;;
44214;SDS011;29884;47.450;19.124;2023-04-24T07:58:33;4.63;;;3.00;;
44214;SDS011;29884;47.450;19.124;2023-04-24T08:00:59;3.72;;;3.15;;
44214;SDS011;29884;47.450;19.124;2023-04-24T08:03:25;3.00;;;2.55;;
44214;SDS011;29884;47.450;19.124;2023-04-24T08:05:50;3.55;;;1.90;;
44214;SDS011;29884;47.450;19.124;2023-04-24T08:08:16;4.63;;;2.60;;
44214;SDS011;29884;47.450;19.124;2023-04-24T08:10:42;4.18;;;2.22;;
44214;SDS011;29884;47.450;19.124;2023-04-24T08:13:08;5.47;;;2.60;;
44214;SDS011;29884;47.450;19.124;2023-04-24T08:15:34;3.65;;;2.60;;
44214;SDS011;29884;47.450;19.124;2023-04-24T08:17:59;3.47;;;1.92;;
44214;SDS011;29884;47.450;19.124;2023-04-24T08:20:25;3.10;;;1.92;;
44214;SDS011;29884;47.450;19.124;2023-04-24T08:22:51;3.25;;;2.25;;
44214;SDS011;29884;47.450;19.124;2023-04-24T08:25:17;5.82;;;2.30;;
44214;SDS011;29884;47.450;19.124;2023-04-24T08:27:44;4.22;;;2.42;;
44214;SDS011;29884;47.450;19.124;2023-04-24T08:30:10;3.22;;;2.42;;
44214;SDS011;29884;47.450;19.124;2023-04-24T08:32:36;4.07;;;2.28;;
44214;SDS011;29884;47.450;19.124;2023-04-24T08:35:02;3.65;;;2.25;;
44214;SDS011;29884;47.450;19.124;2023-04-24T08:37:28;4.22;;;2.60;;
44214;SDS011;29884;47.450;19.124;2023-04-24T08:39:54;3.65;;;2.53;;
44214;SDS011;29884;47.450;19.124;2023-04-24T08:42:20;3.38;;;2.30;;
44214;SDS011;29884;47.450;19.124;2023-04-24T08:44:47;5.25;;;2.58;;
44214;SDS011;29884;47.450;19.124;2023-04-24T08:47:14;4.00;;;2.33;;
44214;SDS011;29884;47.450;19.124;2023-04-24T08:49:40;4.35;;;2.22;;
44214;SDS011;29884;47.450;19.124;2023-04-24T08:52:07;3.05;;;2.22;;
44214;SDS011;29884;47.450;19.124;2023-04-24T08:54:34;3.10;;;2.38;;
44214;SDS011;29884;47.450;19.124;2023-04-24T08:57:00;2.83;;;1.83;;
44214;SDS011;29884;47.450;19.124;2023-04-24T08:59:28;2.53;;;1.85;;
44214;SDS011;29884;47.450;19.124;2023-04-24T09:01:55;2.72;;;1.95;;
44214;SDS011;29884;47.450;19.124;2023-04-24T09:04:21;2.88;;;1.60;;
44214;SDS011;29884;47.450;19.124;2023-04-24T09:06:49;4.97;;;1.88;;
44214;SDS011;29884;47.450;19.124;2023-04-24T09:09:22;2.95;;;1.95;;
44214;SDS011;29884;47.450;19.124;2023-04-24T09:11:49;2.60;;;1.42;;
44214;SDS011;29884;47.450;19.124;2023-04-24T09:14:18;2.53;;;1.80;;
44214;SDS011;29884;47.450;19.124;2023-04-24T09:16:44;3.22;;;1.65;;
44214;SDS011;29884;47.450;19.124;2023-04-24T09:19:11;2.47;;;1.50;;
44214;SDS011;29884;47.450;19.124;2023-04-24T09:21:37;2.65;;;1.77;;
44214;SDS011;29884;47.450;19.124;2023-04-24T09:24:04;2.35;;;1.45;;
44214;SDS011;29884;47.450;19.124;2023-04-24T09:26:33;2.45;;;1.40;;
44214;SDS011;29884;47.450;19.124;2023-04-24T09:29:00;2.60;;;1.60;;
44214;SDS011;29884;47.450;19.124;2023-04-24T09:31:27;2.60;;;1.70;;
44214;SDS011;29884;47.450;19.124;2023-04-24T09:36:31;5.15;;;1.90;;
44214;SDS011;29884;47.450;19.124;2023-04-24T09:39:01;2.30;;;1.70;;
44214;SDS011;29884;47.450;19.124;2023-04-24T09:41:28;2.08;;;1.48;;
44214;SDS011;29884;47.450;19.124;2023-04-24T09:43:54;2.15;;;1.40;;
44214;SDS011;29884;47.450;19.124;2023-04-24T09:46:20;2.40;;;1.73;;
44214;SDS011;29884;47.450;19.124;2023-04-24T09:48:47;1.85;;;1.30;;
44214;SDS011;29884;47.450;19.124;2023-04-24T09:51:13;3.55;;;1.35;;
44214;SDS011;29884;47.450;19.124;2023-04-24T09:53:44;4.55;;;1.52;;
44214;SDS011;29884;47.450;19.124;2023-04-24T09:56:11;2.28;;;1.40;;
44214;SDS011;29884;47.450;19.124;2023-04-24T09:58:38;2.63;;;1.40;;
44214;SDS011;29884;47.450;19.124;2023-04-24T10:01:04;1.92;;;1.33;;
44214;SDS011;29884;47.450;19.124;2023-04-24T10:03:30;2.58;;;1.45;;
44214;SDS011;29884;47.450;19.124;2023-04-24T10:06:03;2.05;;;1.15;;
44214;SDS011;29884;47.450;19.124;2023-04-24T10:08:34;1.77;;;1.20;;
44214;SDS011;29884;47.450;19.124;2023-04-24T10:11:01;1.70;;;0.95;;
44214;SDS011;29884;47.450;19.124;2023-04-24T10:13:27;1.83;;;1.30;;
44214;SDS011;29884;47.450;19.124;2023-04-24T10:15:53;1.85;;;1.02;;
44214;SDS011;29884;47.450;19.124;2023-04-24T10:18:19;1.75;;;1.10;;
44214;SDS011;29884;47.450;19.124;2023-04-24T10:20:47;2.00;;;0.95;;
44214;SDS011;29884;47.450;19.124;2023-04-24T10:23:13;1.67;;;0.90;;
44214;SDS011;29884;47.450;19.124;2023-04-24T10:25:40;2.90;;;1.10;;
44214;SDS011;29884;47.450;19.124;2023-04-24T10:28:05;2.17;;;1.08;;
44214;SDS011;29884;47.450;19.124;2023-04-24T10:30:32;1.70;;;1.20;;
44214;SDS011;29884;47.450;19.124;2023-04-24T10:33:00;1.42;;;1.00;;
44214;SDS011;29884;47.450;19.124;2023-04-24T10:35:30;3.42;;;1.50;;
44214;SDS011;29884;47.450;19.124;2023-04-24T10:37:59;2.40;;;1.25;;
44214;SDS011;29884;47.450;19.124;2023-04-24T10:40:39;1.65;;;1.05;;
44214;SDS011;29884;47.450;19.124;2023-04-24T10:43:06;1.88;;;1.20;;
44214;SDS011;29884;47.450;19.124;2023-04-24T10:45:36;2.80;;;1.48;;
44214;SDS011;29884;47.450;19.124;2023-04-24T10:48:04;2.42;;;1.52;;
44214;SDS011;29884;47.450;19.124;2023-04-24T10:50:52;1.80;;;1.20;;
44214;SDS011;29884;47.450;19.124;2023-04-24T10:53:22;2.75;;;1.67;;
44214;SDS011;29884;47.450;19.124;2023-04-24T10:58:23;1.83;;;1.30;;
44214;SDS011;29884;47.450;19.124;2023-04-24T11:01:00;3.92;;;1.50;;
44214;SDS011;29884;47.450;19.124;2023-04-24T11:03:27;2.08;;;1.30;;
44214;SDS011;29884;47.450;19.124;2023-04-24T11:11:11;2.78;;;1.40;;
44214;SDS011;29884;47.450;19.124;2023-04-24T11:19:01;3.92;;;1.60;;
44214;SDS011;29884;47.450;19.124;2023-04-24T11:26:52;4.47;;;1.75;;
44214;SDS011;29884;47.450;19.124;2023-04-24T11:29:20;2.05;;;1.70;;
44214;SDS011;29884;47.450;19.124;2023-04-24T11:31:46;3.88;;;1.75;;
44214;SDS011;29884;47.450;19.124;2023-04-24T11:34:16;2.67;;;1.60;;
44214;SDS011;29884;47.450;19.124;2023-04-24T11:36:43;2.97;;;1.90;;
44214;SDS011;29884;47.450;19.124;2023-04-24T11:39:10;3.38;;;1.80;;
44214;SDS011;29884;47.450;19.124;2023-04-24T11:41:36;4.22;;;1.98;;
44214;SDS011;29884;47.450;19.124;2023-04-24T11:44:03;2.58;;;2.05;;
44214;SDS011;29884;47.450;19.124;2023-04-24T11:46:31;2.53;;;2.00;;
44214;SDS011;29884;47.450;19.124;2023-04-24T11:48:57;3.20;;;2.15;;
44214;SDS011;29884;47.450;19.124;2023-04-24T11:51:24;3.33;;;2.58;;
44214;SDS011;29884;47.450;19.124;2023-04-24T11:53:51;4.78;;;2.30;;
44214;SDS011;29884;47.450;19.124;2023-04-24T11:56:23;4.45;;;1.95;;
44214;SDS011;29884;47.450;19.124;2023-04-24T11:58:51;3.00;;;2.22;;
44214;SDS011;29884;47.450;19.124;2023-04-24T12:01:18;3.10;;;1.75;;
44214;SDS011;29884;47.450;19.124;2023-04-24T12:03:50;4.05;;;2.35;;
44214;SDS011;29884;47.450;19.124;2023-04-24T12:06:24;3.42;;;1.92;;
44214;SDS011;29884;47.450;19.124;2023-04-24T12:08:50;2.70;;;2.17;;
44214;SDS011;29884;47.450;19.124;2023-04-24T12:11:17;3.22;;;1.70;;
44214;SDS011;29884;47.450;19.124;2023-04-24T12:13:44;3.60;;;1.90;;
44214;SDS011;29884;47.450;19.124;2023-04-24T12:16:10;3.85;;;1.90;;
44214;SDS011;29884;47.450;19.124;2023-04-24T12:18:41;3.38;;;1.30;;
44214;SDS011;29884;47.450;19.124;2023-04-24T12:21:17;2.80;;;1.35;;
44214;SDS011;29884;47.450;19.124;2023-04-24T12:23:45;3.38;;;1.45;;
44214;SDS011;29884;47.450;19.124;2023-04-24T12:26:15;2.28;;;1.60;;
44214;SDS011;29884;47.450;19.124;2023-04-24T12:28:48;2.97;;;1.95;;
44214;SDS011;29884;47.450;19.124;2023-04-24T12:31:15;2.83;;;1.70;;
44214;SDS011;29884;47.450;19.124;2023-04-24T12:33:41;3.97;;;1.92;;
44214;SDS011;29884;47.450;19.124;2023-04-24T12:36:10;3.25;;;1.77;;
44214;SDS011;29884;47.450;19.124;2023-04-24T12:38:37;3.03;;;1.75;;
44214;SDS011;29884;47.450;19.124;2023-04-24T12:41:06;2.88;;;1.70;;
44214;SDS011;29884;47.450;19.124;2023-04-24T12:43:34;2.38;;;1.65;;
44214;SDS011;29884;47.450;19.124;2023-04-24T12:45:59;2.00;;;1.25;;
44214;SDS011;29884;47.450;19.124;2023-04-24T12:48:26;1.60;;;1.05;;
44214;SDS011;29884;47.450;19.124;2023-04-24T12:50:52;1.88;;;1.27;;
44214;SDS011;29884;47.450;19.124;2023-04-24T12:53:18;3.70;;;0.95;;
44214;SDS011;29884;47.450;19.124;2023-04-24T12:55:46;1.80;;;0.90;;
44214;SDS011;29884;47.450;19.124;2023-04-24T12:58:17;1.63;;;1.00;;
44214;SDS011;29884;47.450;19.124;2023-04-24T13:00:45;1.70;;;0.80;;
44214;SDS011;29884;47.450;19.124;2023-04-24T13:03:11;2.10;;;0.68;;
44214;SDS011;29884;47.450;19.124;2023-04-24T13:05:37;1.52;;;0.57;;
44214;SDS011;29884;47.450;19.124;2023-04-24T13:08:03;1.10;;;0.50;;
44214;SDS011;29884;47.450;19.124;2023-04-24T13:10:29;1.42;;;0.70;;
44214;SDS011;29884;47.450;19.124;2023-04-24T13:12:55;1.20;;;0.50;;
44214;SDS011;29884;47.450;19.124;2023-04-24T13:15:21;1.90;;;0.47;;
44214;SDS011;29884;47.450;19.124;2023-04-24T13:17:47;2.22;;;0.70;;
44214;SDS011;29884;47.450;19.124;2023-04-24T13:20:12;1.08;;;0.60;;
44214;SDS011;29884;47.450;19.124;2023-04-24T13:22:38;0.95;;;0.60;;
44214;SDS011;29884;47.450;19.124;2023-04-24T13:25:04;2.10;;;0.63;;
44214;SDS011;29884;47.450;19.124;2023-04-24T13:27:34;0.90;;;0.60;;
44214;SDS011;29884;47.450;19.124;2023-04-24T13:29:59;1.27;;;0.70;;
44214;SDS011;29884;47.450;19.124;2023-04-24T13:32:25;1.17;;;0.63;;
44214;SDS011;29884;47.450;19.124;2023-04-24T13:34:52;1.33;;;0.73;;
44214;SDS011;29884;47.450;19.124;2023-04-24T13:37:18;1.10;;;0.50;;
44214;SDS011;29884;47.450;19.124;2023-04-24T13:39:44;1.45;;;0.55;;
44214;SDS011;29884;47.450;19.124;2023-04-24T13:42:09;1.55;;;0.60;;
44214;SDS011;29884;47.450;19.124;2023-04-24T13:44:35;2.63;;;0.70;;
44214;SDS011;29884;47.450;19.124;2023-04-24T13:47:02;1.63;;;0.60;;
44214;SDS011;29884;47.450;19.124;2023-04-24T13:49:28;1.17;;;0.60;;
44214;SDS011;29884;47.450;19.124;2023-04-24T13:51:54;1.33;;;0.60;;
44214;SDS011;29884;47.450;19.124;2023-04-24T13:54:21;0.90;;;0.60;;
44214;SDS011;29884;47.450;19.124;2023-04-24T13:56:48;1.35;;;0.85;;
44214;SDS011;29884;47.450;19.124;2023-04-24T13:59:14;1.35;;;0.65;;
44214;SDS011;29884;47.450;19.124;2023-04-24T14:01:40;1.15;;;0.60;;
44214;SDS011;29884;47.450;19.124;2023-04-24T14:04:06;1.10;;;0.57;;
44214;SDS011;29884;47.450;19.124;2023-04-24T14:06:31;1.13;;;0.55;;
44214;SDS011;29884;47.450;19.124;2023-04-24T14:08:57;1.58;;;0.50;;
44214;SDS011;29884;47.450;19.124;2023-04-24T14:11:23;1.73;;;0.50;;
44214;SDS011;29884;47.450;19.124;2023-04-24T14:13:49;1.08;;;0.70;;
44214;SDS011;29884;47.450;19.124;2023-04-24T14:16:15;1.83;;;0.70;;
44214;SDS011;29884;47.450;19.124;2023-04-24T14:18:41;1.40;;;0.80;;
44214;SDS011;29884;47.450;19.124;2023-04-24T14:21:06;1.90;;;0.93;;
44214;SDS011;29884;47.450;19.124;2023-04-24T14:23:32;1.20;;;0.73;;
44214;SDS011;29884;47.450;19.124;2023-04-24T14:25:58;1.00;;;0.70;;
44214;SDS011;29884;47.450;19.124;2023-04-24T14:28:24;2.20;;;0.73;;
44214;SDS011;29884;47.450;19.124;2023-04-24T14:30:51;1.58;;;0.70;;
44214;SDS011;29884;47.450;19.124;2023-04-24T14:33:17;2.72;;;0.70;;
44214;SDS011;29884;47.450;19.124;2023-04-24T14:35:43;4.20;;;0.82;;
44214;SDS011;29884;47.450;19.124;2023-04-24T14:38:09;1.88;;;0.70;;
44214;SDS011;29884;47.450;19.124;2023-04-24T14:40:36;2.10;;;1.00;;
44214;SDS011;29884;47.450;19.124;2023-04-24T14:43:02;2.53;;;1.00;;
44214;SDS011;29884;47.450;19.124;2023-04-24T14:45:28;1.90;;;1.02;;
44214;SDS011;29884;47.450;19.124;2023-04-24T14:47:54;1.65;;;1.00;;
44214;SDS011;29884;47.450;19.124;2023-04-24T14:50:20;1.60;;;0.90;;